Time;durP1;ratioP1;P1;durP2;ratioP2;P2;SDS_P1;SDS_P2;PMS_P1;PMS_P2;Temp;Humidity;BMP_temperature;BMP_pressure;BME280_temperature;BME280_humidity;BME280_pressure;Samples;Min_cycle;Max_cycle;Signal;HPM_P1;HPM_P2
2023/08/03 00:01:55;;;;;;;8.27;3.75;;;14.80;99.90;;;;;;5031806;28;20042;-29
2023/08/03 00:04:21;;;;;;;14.77;6.07;;;15.20;99.90;;;;;;5029007;28;20106;-30
2023/08/03 00:06:46;;;;;;;14.80;4.13;;;15.20;99.90;;;;;;5019498;28;20049;-29
2023/08/03 00:09:12;;;;;;;7.45;3.42;;;14.90;99.90;;;;;;5039411;28;20038;-31
2023/08/03 00:11:38;;;;;;;11.40;3.95;;;15.50;99.90;;;;;;5038895;28;20098;-29
2023/08/03 00:14:04;;;;;;;13.80;4.18;;;15.50;99.90;;;;;;5051917;28;20049;-31
2023/08/03 00:16:29;;;;;;;10.98;3.83;;;14.70;99.90;;;;;;5052877;28;20040;-29
2023/08/03 00:18:55;;;;;;;12.05;3.70;;;15.50;99.90;;;;;;5029734;28;20041;-30
2023/08/03 00:21:21;;;;;;;9.65;3.97;;;15.30;99.90;;;;;;5041670;28;20037;-29
2023/08/03 00:23:46;;;;;;;11.00;4.00;;;14.90;99.90;;;;;;5033871;28;20049;-29
2023/08/03 00:26:12;;;;;;;5.90;3.58;;;14.80;99.90;;;;;;5051146;28;20056;-29
2023/08/03 00:28:38;;;;;;;10.13;3.63;;;14.90;99.90;;;;;;5051691;28;20139;-29
2023/08/03 00:31:03;;;;;;;10.10;4.35;;;14.80;99.90;;;;;;5053611;28;20047;-30
2023/08/03 00:33:29;;;;;;;8.75;4.05;;;15.50;99.90;;;;;;5053521;28;20448;-30
2023/08/03 00:35:56;;;;;;;8.73;4.50;;;14.80;99.90;;;;;;5052411;28;20049;-30
2023/08/03 00:38:22;;;;;;;8.90;3.78;;;15.60;99.90;;;;;;5033941;28;20049;-30
2023/08/03 00:40:50;;;;;;;7.13;3.38;;;14.80;99.90;;;;;;5033104;28;20103;-29
2023/08/03 00:43:16;;;;;;;6.78;3.60;;;15.60;99.90;;;;;;5033625;28;20057;-30
2023/08/03 00:45:42;;;;;;;10.98;4.40;;;15.50;99.90;;;;;;5034012;28;20506;-30
2023/08/03 00:48:07;;;;;;;10.90;4.40;;;14.90;99.90;;;;;;5032947;28;20072;-30
2023/08/03 00:50:33;;;;;;;8.77;4.63;;;14.80;99.90;;;;;;5033606;28;20041;-29
2023/08/03 00:52:59;;;;;;;15.98;4.90;;;14.80;99.90;;;;;;5016427;28;20471;-30
2023/08/03 00:55:24;;;;;;;10.40;4.28;;;15.00;99.90;;;;;;5032368;28;20136;-29
2023/08/03 00:57:50;;;;;;;13.63;4.63;;;15.30;99.90;;;;;;5033574;28;20053;-31
2023/08/03 01:00:16;;;;;;;9.98;3.78;;;15.40;99.90;;;;;;5035354;28;20045;-30
2023/08/03 01:02:42;;;;;;;10.77;4.60;;;15.60;99.90;;;;;;5053423;28;20067;-29
2023/08/03 01:05:08;;;;;;;14.93;4.55;;;15.50;99.90;;;;;;5052073;28;20375;-30
2023/08/03 01:07:36;;;;;;;9.98;4.43;;;14.90;99.90;;;;;;5052142;28;20044;-30
2023/08/03 01:10:02;;;;;;;11.15;5.10;;;15.40;99.90;;;;;;5044682;28;20037;-29
2023/08/03 01:12:28;;;;;;;13.32;4.50;;;15.10;99.90;;;;;;5032196;28;20053;-29
2023/08/03 01:14:54;;;;;;;10.82;4.70;;;15.70;99.90;;;;;;5033213;28;20051;-29
2023/08/03 01:17:21;;;;;;;9.95;4.38;;;14.80;99.90;;;;;;5033370;28;20124;-29
2023/08/03 01:19:47;;;;;;;9.23;4.43;;;15.00;99.90;;;;;;5031667;28;20124;-31
2023/08/03 01:22:13;;;;;;;13.93;4.85;;;15.60;99.90;;;;;;5032152;28;20747;-29
2023/08/03 01:24:39;;;;;;;9.77;4.35;;;15.60;99.90;;;;;;5044252;28;20050;-29
2023/08/03 01:27:05;;;;;;;9.10;4.32;;;14.80;99.90;;;;;;5032846;28;20107;-30
2023/08/03 01:29:32;;;;;;;10.27;4.43;;;15.00;99.90;;;;;;5046589;28;20052;-29
2023/08/03 01:31:59;;;;;;;12.00;4.53;;;14.70;99.90;;;;;;5051853;28;20483;-28
2023/08/03 01:34:27;;;;;;;8.80;4.13;;;14.90;99.90;;;;;;5052141;28;20053;-28
2023/08/03 01:36:54;;;;;;;12.27;4.88;;;14.90;99.90;;;;;;5052672;28;20045;-28
2023/08/03 01:39:24;;;;;;;9.15;4.35;;;14.90;99.90;;;;;;5053640;28;20057;-29
2023/08/03 01:41:50;;;;;;;8.07;4.57;;;15.00;99.90;;;;;;5038335;28;20049;-29
2023/08/03 01:44:27;;;;;;;8.18;4.80;;;14.80;99.90;;;;;;5033907;28;20052;-29
2023/08/03 01:46:55;;;;;;;8.05;3.88;;;15.50;99.90;;;;;;5032785;28;20492;-29
2023/08/03 01:49:22;;;;;;;7.35;4.00;;;14.70;99.90;;;;;;5032075;28;20053;-29
2023/08/03 01:51:49;;;;;;;9.68;4.28;;;15.20;99.90;;;;;;5033032;28;20480;-29
2023/08/03 01:54:15;;;;;;;10.25;4.32;;;15.70;99.90;;;;;;5052352;28;20094;-29
2023/08/03 01:56:41;;;;;;;10.98;3.50;;;15.20;99.90;;;;;;5056947;28;20049;-29
2023/08/03 01:59:07;;;;;;;9.48;3.38;;;15.30;99.90;;;;;;5045315;28;20053;-29
2023/08/03 02:01:33;;;;;;;7.38;4.05;;;15.40;99.90;;;;;;5054602;28;20048;-29
2023/08/03 02:03:58;;;;;;;8.85;3.90;;;15.10;99.90;;;;;;5048496;28;20042;-28
2023/08/03 02:06:24;;;;;;;10.48;3.28;;;15.00;99.90;;;;;;5036053;28;20087;-29
2023/08/03 02:08:50;;;;;;;6.22;2.47;;;14.90;99.90;;;;;;5046542;28;20044;-28
2023/08/03 02:11:15;;;;;;;6.25;2.65;;;14.80;99.90;;;;;;5054161;28;20091;-28
2023/08/03 02:13:41;;;;;;;12.02;3.65;;;15.10;99.90;;;;;;5055291;28;20053;-28
2023/08/03 02:16:10;;;;;;;8.60;3.13;;;14.90;99.90;;;;;;5054971;28;20506;-28
2023/08/03 02:18:41;;;;;;;7.90;3.10;;;14.90;99.90;;;;;;5043751;28;20045;-29
2023/08/03 02:21:07;;;;;;;6.30;3.47;;;15.80;99.90;;;;;;5040896;28;20041;-29
2023/08/03 02:23:33;;;;;;;6.45;3.00;;;15.80;99.90;;;;;;5039515;28;20053;-28
2023/08/03 02:26:02;;;;;;;7.85;2.55;;;14.90;99.90;;;;;;5054627;28;20080;-28
2023/08/03 02:28:32;;;;;;;3.70;2.53;;;15.80;99.90;;;;;;5054710;28;20041;-28
2023/08/03 02:30:58;;;;;;;3.83;2.28;;;15.10;99.90;;;;;;5052467;28;20099;-28
2023/08/03 02:33:24;;;;;;;4.95;2.63;;;15.90;99.90;;;;;;5053197;28;20498;-28
2023/08/03 02:35:50;;;;;;;5.85;2.85;;;15.60;99.90;;;;;;5055755;28;20636;-28
2023/08/03 02:38:15;;;;;;;6.35;3.67;;;15.00;99.90;;;;;;5052942;28;20060;-29
2023/08/03 02:40:41;;;;;;;5.65;2.90;;;15.40;99.90;;;;;;5043255;28;20045;-28
2023/08/03 02:43:07;;;;;;;10.90;3.53;;;15.40;99.90;;;;;;5053516;28;20072;-28
2023/08/03 02:45:32;;;;;;;6.47;3.10;;;15.00;99.90;;;;;;5055639;28;20083;-28
2023/08/03 02:47:58;;;;;;;9.07;3.85;;;15.70;99.90;;;;;;5054593;28;20493;-28
2023/08/03 02:50:24;;;;;;;4.40;3.30;;;15.00;99.90;;;;;;5020851;28;20057;-28
2023/08/03 02:52:49;;;;;;;6.65;3.58;;;15.70;99.90;;;;;;5035155;28;20084;-28
2023/08/03 02:55:16;;;;;;;8.00;3.92;;;15.80;99.90;;;;;;5035067;28;20046;-28
2023/08/03 02:57:42;;;;;;;4.78;3.40;;;15.20;99.90;;;;;;5035543;28;20061;-28
2023/08/03 03:00:09;;;;;;;7.95;3.83;;;14.90;99.90;;;;;;5043241;28;20503;-29
2023/08/03 03:02:36;;;;;;;9.40;4.80;;;15.10;99.90;;;;;;5017407;28;20045;-28
2023/08/03 03:05:02;;;;;;;7.97;4.18;;;15.80;99.90;;;;;;5033986;28;20119;-28
2023/08/03 03:07:31;;;;;;;9.50;4.72;;;14.90;99.90;;;;;;5035242;28;20049;-28
2023/08/03 03:09:57;;;;;;;8.98;4.30;;;15.80;99.90;;;;;;5034253;28;20057;-28
2023/08/03 03:12:23;;;;;;;8.23;4.57;;;15.10;99.90;;;;;;5033929;28;20557;-28
2023/08/03 03:14:49;;;;;;;9.20;4.97;;;15.60;99.90;;;;;;5043658;28;20056;-28
2023/08/03 03:17:15;;;;;;;6.75;5.38;;;15.40;99.90;;;;;;5055008;28;20044;-28
2023/08/03 03:19:41;;;;;;;12.90;6.35;;;15.40;99.90;;;;;;5053716;28;20063;-28
2023/08/03 03:22:07;;;;;;;8.57;5.70;;;15.10;99.90;;;;;;5052413;28;20060;-29
2023/08/03 03:24:33;;;;;;;11.10;6.07;;;15.70;99.90;;;;;;5044845;28;20073;-28
2023/08/03 03:26:59;;;;;;;12.88;6.82;;;14.80;99.90;;;;;;5044015;28;20128;-29
2023/08/03 03:29:24;;;;;;;12.57;7.15;;;15.40;99.90;;;;;;5037346;28;20045;-28
2023/08/03 03:31:50;;;;;;;11.75;6.70;;;15.10;99.90;;;;;;5053638;28;20068;-28
2023/08/03 03:34:16;;;;;;;11.05;6.30;;;15.10;99.90;;;;;;5052731;28;20056;-27
2023/08/03 03:36:42;;;;;;;12.10;7.20;;;15.20;99.90;;;;;;5045193;28;20048;-28
2023/08/03 03:39:07;;;;;;;12.88;6.55;;;15.70;99.90;;;;;;5027378;28;20103;-28
2023/08/03 03:41:33;;;;;;;10.77;7.13;;;15.80;99.90;;;;;;5038491;28;20049;-27
2023/08/03 03:43:59;;;;;;;13.10;8.38;;;15.30;99.90;;;;;;5046140;28;20040;-29
2023/08/03 03:46:24;;;;;;;11.73;7.75;;;15.80;99.90;;;;;;5049890;28;20041;-28
2023/08/03 03:48:50;;;;;;;11.10;6.13;;;14.90;99.90;;;;;;5033406;28;20084;-28
2023/08/03 03:51:18;;;;;;;13.77;7.65;;;15.40;99.90;;;;;;5049977;28;20052;-28
2023/08/03 03:53:44;;;;;;;11.93;8.20;;;14.90;99.90;;;;;;5043189;28;20388;-27
2023/08/03 03:56:10;;;;;;;12.18;7.88;;;15.80;99.90;;;;;;5033878;28;20052;-28
2023/08/03 03:58:36;;;;;;;11.52;8.27;;;15.40;99.90;;;;;;5043718;28;20072;-28
2023/08/03 04:01:01;;;;;;;12.02;7.32;;;15.70;99.90;;;;;;5035474;28;20042;-28
2023/08/03 04:03:27;;;;;;;11.65;7.63;;;14.80;99.90;;;;;;5040714;28;20414;-28
2023/08/03 04:05:53;;;;;;;11.63;7.78;;;15.80;99.90;;;;;;5052201;28;20049;-28
2023/08/03 04:08:19;;;;;;;13.65;8.30;;;15.80;99.90;;;;;;5052729;28;20407;-28
2023/08/03 04:10:45;;;;;;;15.27;8.48;;;15.00;99.90;;;;;;5052824;28;20048;-27
2023/08/03 04:13:10;;;;;;;13.02;8.80;;;14.90;99.90;;;;;;5042612;28;20056;-29
2023/08/03 04:15:36;;;;;;;13.38;8.18;;;15.70;99.90;;;;;;5045363;28;20548;-28
2023/08/03 04:18:02;;;;;;;14.30;9.23;;;15.00;99.90;;;;;;5053040;28;20048;-28
2023/08/03 04:20:28;;;;;;;12.80;8.95;;;15.90;99.90;;;;;;5049642;28;20044;-28
2023/08/03 04:22:53;;;;;;;18.77;9.30;;;15.90;99.90;;;;;;5053228;28;20415;-28
2023/08/03 04:25:19;;;;;;;16.30;9.90;;;15.00;99.90;;;;;;5038253;28;20124;-28
2023/08/03 04:27:45;;;;;;;16.42;9.70;;;15.30;99.90;;;;;;5037985;28;20116;-28
2023/08/03 04:30:13;;;;;;;16.70;10.50;;;15.90;99.90;;;;;;5049226;28;20044;-28
2023/08/03 04:32:39;;;;;;;18.40;10.75;;;15.90;99.90;;;;;;5033696;28;20072;-28
2023/08/03 04:35:06;;;;;;;19.17;10.45;;;15.10;99.90;;;;;;5032827;28;20053;-28
2023/08/03 04:37:31;;;;;;;18.23;10.88;;;15.20;99.90;;;;;;5032972;28;20514;-28
2023/08/03 04:39:57;;;;;;;16.42;9.98;;;15.10;99.90;;;;;;5041227;28;20041;-28
2023/08/03 04:42:23;;;;;;;15.52;7.93;;;15.40;99.90;;;;;;5026254;28;20048;-28
2023/08/03 04:44:49;;;;;;;20.08;10.55;;;15.90;99.90;;;;;;5033108;28;20041;-28
2023/08/03 04:47:16;;;;;;;14.65;7.95;;;15.60;99.90;;;;;;5047184;28;20045;-28
2023/08/03 04:49:41;;;;;;;15.00;9.52;;;15.50;99.90;;;;;;5032042;28;20128;-28
2023/08/03 04:52:08;;;;;;;17.95;10.98;;;16.10;99.90;;;;;;5039670;28;20467;-29
2023/08/03 04:54:33;;;;;;;15.88;8.18;;;15.50;99.90;;;;;;5046724;28;20434;-28
2023/08/03 04:56:59;;;;;;;16.67;8.25;;;16.30;99.90;;;;;;5033877;28;20065;-29
2023/08/03 04:59:25;;;;;;;12.02;6.95;;;15.40;99.90;;;;;;5044181;28;20087;-29
2023/08/03 05:01:50;;;;;;;21.55;8.70;;;16.40;99.90;;;;;;5048799;28;20372;-32
2023/08/03 05:04:16;;;;;;;14.38;8.20;;;15.60;99.90;;;;;;5033528;28;20452;-29
2023/08/03 05:06:42;;;;;;;19.70;11.15;;;15.50;99.90;;;;;;5033493;28;20403;-29
2023/08/03 05:09:08;;;;;;;13.50;8.15;;;16.40;99.90;;;;;;5043071;28;20052;-29
2023/08/03 05:11:33;;;;;;;17.90;10.27;;;15.50;99.90;;;;;;5039949;28;20037;-28
2023/08/03 05:13:59;;;;;;;12.02;9.07;;;16.20;99.90;;;;;;5048807;28;20099;-29
2023/08/03 05:16:26;;;;;;;12.50;8.13;;;15.70;99.90;;;;;;5039365;28;20435;-28
2023/08/03 05:18:52;;;;;;;14.73;9.85;;;15.70;99.90;;;;;;5041933;28;20076;-29
2023/08/03 05:21:18;;;;;;;14.35;9.68;;;15.40;99.90;;;;;;5038293;28;20120;-28
2023/08/03 05:23:45;;;;;;;15.55;10.38;;;15.40;99.90;;;;;;5033159;28;20120;-29
2023/08/03 05:26:11;;;;;;;9.93;7.97;;;16.20;99.90;;;;;;5034810;28;20047;-28
2023/08/03 05:28:37;;;;;;;11.32;9.23;;;15.80;99.90;;;;;;5054614;28;20057;-28
2023/08/03 05:31:04;;;;;;;12.65;8.48;;;15.70;99.90;;;;;;5057260;28;20049;-28
2023/08/03 05:33:29;;;;;;;19.00;10.05;;;16.10;99.90;;;;;;5056389;28;20075;-29
2023/08/03 05:35:55;;;;;;;10.18;6.95;;;15.70;99.90;;;;;;5047338;28;20375;-29
2023/08/03 05:38:21;;;;;;;11.05;8.35;;;15.50;99.90;;;;;;5051017;28;20491;-28
2023/08/03 05:40:47;;;;;;;12.55;8.68;;;15.40;99.90;;;;;;5039835;28;20049;-29
2023/08/03 05:43:15;;;;;;;7.43;5.68;;;15.90;99.90;;;;;;5037379;28;20055;-29
2023/08/03 05:45:43;;;;;;;12.50;8.32;;;16.10;99.90;;;;;;5036307;28;20052;-28
2023/08/03 05:48:13;;;;;;;11.05;6.20;;;15.50;99.90;;;;;;5036324;28;20053;-29
2023/08/03 05:50:46;;;;;;;7.65;5.00;;;16.00;99.90;;;;;;5049275;28;20116;-28
2023/08/03 05:53:12;;;;;;;9.10;6.55;;;15.60;99.90;;;;;;5055709;28;20143;-29
2023/08/03 05:55:39;;;;;;;8.30;6.38;;;15.50;99.90;;;;;;5056547;28;20049;-29
2023/08/03 05:58:08;;;;;;;8.45;6.07;;;15.50;99.90;;;;;;5054518;28;20052;-29
2023/08/03 06:00:34;;;;;;;7.18;5.13;;;16.00;99.90;;;;;;5039197;28;20045;-29
2023/08/03 06:02:59;;;;;;;8.63;5.85;;;16.00;99.90;;;;;;5047938;28;20048;-29
2023/08/03 06:05:37;;;;;;;10.00;5.93;;;16.00;99.90;;;;;;5055472;28;20044;-29
2023/08/03 06:08:20;;;;;;;8.43;6.90;;;15.80;99.90;;;;;;5056008;28;20398;-29
2023/08/03 06:10:54;;;;;;;7.75;6.15;;;15.80;99.90;;;;;;5044225;28;20479;-29
2023/08/03 06:13:28;;;;;;;9.90;6.93;;;16.10;99.90;;;;;;5036887;28;20099;-29
2023/08/03 06:15:54;;;;;;;8.38;6.00;;;16.10;99.90;;;;;;5045412;28;20060;-29
2023/08/03 06:18:21;;;;;;;5.75;4.20;;;16.20;99.90;;;;;;5036470;28;20042;-29
2023/08/03 06:20:52;;;;;;;5.68;3.97;;;16.10;99.90;;;;;;5041862;28;20072;-28
2023/08/03 06:23:20;;;;;;;7.82;6.30;;;16.30;99.90;;;;;;5050680;28;20162;-28
2023/08/03 06:25:47;;;;;;;5.88;4.50;;;16.50;99.90;;;;;;5035375;28;20747;-29
2023/08/03 06:28:23;;;;;;;6.55;5.13;;;16.40;99.90;;;;;;5048785;28;20041;-29
2023/08/03 06:30:50;;;;;;;6.40;5.43;;;16.60;99.90;;;;;;5055193;28;20501;-31
2023/08/03 06:33:18;;;;;;;6.35;5.72;;;16.50;99.90;;;;;;5047205;28;20059;-29
2023/08/03 06:35:46;;;;;;;7.68;4.88;;;16.80;99.90;;;;;;5035906;28;20046;-28
2023/08/03 06:38:15;;;;;;;4.55;4.00;;;16.70;99.90;;;;;;5039685;28;20046;-29
2023/08/03 06:40:46;;;;;;;4.82;3.97;;;16.70;99.90;;;;;;5036320;28;20092;-28
2023/08/03 06:43:13;;;;;;;7.38;5.10;;;16.70;99.90;;;;;;5034474;28;20060;-29
2023/08/03 06:45:40;;;;;;;5.40;3.97;;;17.20;99.90;;;;;;5052466;28;20045;-31
2023/08/03 06:48:07;;;;;;;6.22;4.30;;;17.50;99.90;;;;;;5062937;28;20044;-30
2023/08/03 06:50:34;;;;;;;5.60;4.00;;;17.60;99.90;;;;;;5042154;28;20045;-30
2023/08/03 06:53:03;;;;;;;4.70;4.00;;;17.40;99.90;;;;;;5035859;28;20048;-29
2023/08/03 06:55:30;;;;;;;5.30;4.25;;;17.30;99.90;;;;;;5017713;28;20083;-30
2023/08/03 06:57:56;;;;;;;6.97;3.40;;;17.40;99.90;;;;;;5035084;28;20065;-29
2023/08/03 07:00:23;;;;;;;7.95;2.85;;;17.50;99.90;;;;;;5042953;28;20068;-29
2023/08/03 07:02:49;;;;;;;6.70;2.42;;;17.80;99.90;;;;;;5040194;28;20051;-29
2023/08/03 07:05:15;;;;;;;3.28;2.58;;;17.70;99.90;;;;;;5034620;28;20143;-29
2023/08/03 07:07:41;;;;;;;4.65;1.20;;;17.60;99.90;;;;;;5035263;28;20507;-29
2023/08/03 07:10:07;;;;;;;2.33;1.13;;;17.70;99.90;;;;;;5035227;28;20057;-28
2023/08/03 07:12:36;;;;;;;2.95;0.80;;;17.80;99.90;;;;;;5033988;28;20041;-30
2023/08/03 07:15:06;;;;;;;5.78;0.90;;;17.60;99.90;;;;;;5035155;28;20045;-28
2023/08/03 07:17:36;;;;;;;3.00;0.80;;;17.70;99.90;;;;;;5035454;28;20108;-29
2023/08/03 07:20:08;;;;;;;5.15;0.80;;;17.70;99.90;;;;;;5034995;28;20049;-29
2023/08/03 07:22:35;;;;;;;2.03;0.65;;;17.60;99.90;;;;;;5050920;28;20059;-29
2023/08/03 07:25:01;;;;;;;2.67;0.68;;;17.70;99.90;;;;;;5053703;28;20102;-30
2023/08/03 07:27:26;;;;;;;2.17;0.63;;;17.90;99.90;;;;;;5054837;28;20048;-29
2023/08/03 07:29:53;;;;;;;3.22;0.60;;;18.10;99.90;;;;;;5053278;28;20487;-30
2023/08/03 07:32:19;;;;;;;3.50;0.90;;;18.40;99.90;;;;;;5034346;28;20043;-29
2023/08/03 07:34:44;;;;;;;4.28;0.60;;;18.60;99.90;;;;;;5040649;28;20496;-30
2023/08/03 07:37:10;;;;;;;5.63;0.70;;;18.80;99.90;;;;;;5033580;28;20048;-29
2023/08/03 07:39:36;;;;;;;6.07;1.10;;;18.80;99.90;;;;;;5034653;28;20057;-30
2023/08/03 07:42:02;;;;;;;5.28;0.90;;;18.60;99.90;;;;;;5034532;28;20387;-30
2023/08/03 07:44:30;;;;;;;2.67;0.70;;;18.40;99.90;;;;;;5043956;28;20568;-30
2023/08/03 07:46:55;;;;;;;4.07;0.60;;;18.70;99.90;;;;;;5042210;28;20381;-31
2023/08/03 07:49:21;;;;;;;1.67;0.65;;;19.10;99.90;;;;;;5034437;28;20098;-31
2023/08/03 07:51:50;;;;;;;5.50;0.70;;;19.40;99.90;;;;;;5051261;28;20041;-32
2023/08/03 07:54:16;;;;;;;2.70;0.90;;;19.30;99.90;;;;;;5054276;28;20548;-31
2023/08/03 07:56:42;;;;;;;3.22;0.85;;;18.90;99.90;;;;;;5053363;28;20131;-31
2023/08/03 07:59:10;;;;;;;5.90;0.93;;;18.70;99.90;;;;;;5052981;28;20368;-31
2023/08/03 08:01:37;;;;;;;3.40;0.73;;;18.30;99.90;;;;;;5051669;28;20130;-33
2023/08/03 08:04:03;;;;;;;3.40;0.60;;;18.00;99.90;;;;;;5052794;28;20055;-31
2023/08/03 08:06:29;;;;;;;4.82;0.70;;;18.10;99.90;;;;;;5036455;28;20578;-32
2023/08/03 08:08:55;;;;;;;4.07;0.98;;;18.40;99.90;;;;;;5054092;28;20051;-32
2023/08/03 08:11:21;;;;;;;5.00;0.80;;;18.70;99.90;;;;;;5053091;28;20414;-32
2023/08/03 08:13:46;;;;;;;4.15;0.70;;;19.10;99.90;;;;;;5049948;28;20041;-32
2023/08/03 08:16:14;;;;;;;7.00;0.90;;;19.50;99.90;;;;;;5052746;28;20045;-33
2023/08/03 08:18:40;;;;;;;4.95;0.70;;;19.60;99.90;;;;;;5053948;28;20122;-35
2023/08/03 08:21:09;;;;;;;2.55;0.50;;;19.20;61.80;;;;;;5053504;28;20570;-33
2023/08/03 08:23:36;;;;;;;4.80;0.82;;;18.90;41.20;;;;;;5039015;28;20049;-32
2023/08/03 08:26:08;;;;;;;5.32;0.70;;;18.60;99.90;;;;;;5032983;28;20037;-32
2023/08/03 08:28:33;;;;;;;4.53;0.70;;;18.60;99.90;;;;;;5034742;28;20067;-33
2023/08/03 08:30:59;;;;;;;4.32;0.80;;;19.30;99.90;;;;;;5033764;28;20049;-33
2023/08/03 08:33:25;;;;;;;7.70;1.13;;;19.90;99.90;;;;;;5039389;28;20044;-32
2023/08/03 08:35:50;;;;;;;3.63;0.57;;;20.40;99.90;;;;;;5053738;28;20075;-34
2023/08/03 08:38:16;;;;;;;4.50;0.52;;;20.00;1.00;;;;;;5053658;28;20048;-35
2023/08/03 08:40:44;;;;;;;2.30;0.70;;;19.80;1.00;;;;;;5054166;28;20040;-33
2023/08/03 08:43:10;;;;;;;5.63;0.80;;;20.00;1.00;;;;;;5051098;28;20501;-34
2023/08/03 08:45:37;;;;;;;2.40;0.60;;;20.30;1.00;;;;;;5033455;28;20042;-34
2023/08/03 08:48:04;;;;;;;8.30;1.10;;;19.90;1.00;;;;;;5032779;28;20052;-33
2023/08/03 08:50:30;;;;;;;3.65;0.90;;;19.60;1.00;;;;;;5034387;28;20075;-33
2023/08/03 08:52:56;;;;;;;3.90;0.88;;;19.20;1.00;;;;;;5033580;28;20037;-33
2023/08/03 08:55:24;;;;;;;7.10;1.30;;;19.00;72.60;;;;;;5033249;28;20055;-34
2023/08/03 08:57:51;;;;;;;8.80;1.67;;;18.90;99.90;;;;;;5033183;28;20053;-33
2023/08/03 09:00:18;;;;;;;8.65;1.50;;;19.40;99.90;;;;;;5033966;28;20056;-34
2023/08/03 09:02:44;;;;;;;4.28;1.10;;;20.20;99.90;;;;;;5034986;28;20057;-34
2023/08/03 09:05:24;;;;;;;6.60;1.10;;;21.20;89.10;;;;;;5043237;28;20037;-34
2023/08/03 09:08:16;;;;;;;9.57;1.60;;;19.90;18.30;;;;;;5055584;28;20041;-34
2023/08/03 09:10:55;;;;;;;7.90;1.40;;;20.70;79.80;;;;;;5053566;28;20049;-35
2023/08/03 09:13:39;;;;;;;6.65;1.15;;;20.20;99.90;;;;;;5058155;28;20383;-38
2023/08/03 09:16:05;;;;;;;7.60;1.70;;;19.40;1.00;;;;;;5054756;28;20044;-35
2023/08/03 09:18:31;;;;;;;6.50;1.85;;;19.30;1.00;;;;;;5057299;28;20129;-37
2023/08/03 09:21:17;;;;;;;5.68;2.17;;;20.00;1.00;;;;;;5055888;28;20405;-38
2023/08/03 09:23:43;;;;;;;3.92;0.93;;;20.90;99.90;;;;;;5057177;28;20049;-40
2023/08/03 09:26:09;;;;;;;7.75;1.23;;;21.50;99.90;;;;;;5054517;28;20041;-39
2023/08/03 09:28:36;;;;;;;5.82;0.93;;;21.70;1.00;;;;;;5057081;28;20057;-39
2023/08/03 09:31:02;;;;;;;6.00;1.35;;;22.10;99.90;;;;;;5056922;28;20045;-40
2023/08/03 09:33:28;;;;;;;6.60;0.90;;;22.30;99.90;;;;;;5056940;28;20112;-41
2023/08/03 09:36:08;;;;;;;2.40;0.70;;;22.50;99.90;;;;;;5055558;28;20131;-41
2023/08/03 09:38:34;;;;;;;8.10;1.63;;;23.00;99.90;;;;;;5037465;28;20475;-41
2023/08/03 09:41:00;;;;;;;3.22;1.10;;;23.20;99.90;;;;;;5036844;28;20045;-42
2023/08/03 09:43:27;;;;;;;5.97;1.08;;;22.20;99.90;;;;;;5035678;28;20049;-42
2023/08/03 09:45:54;;;;;;;3.42;0.60;;;21.20;99.90;;;;;;5037441;28;20107;-42
2023/08/03 09:48:20;;;;;;;7.28;1.13;;;20.70;1.00;;;;;;5050654;28;20045;-41
2023/08/03 09:50:54;;;;;;;4.70;1.02;;;21.10;59.30;;;;;;5057251;28;20044;-41
2023/08/03 09:53:23;;;;;;;5.53;1.13;;;21.90;1.00;;;;;;5056910;28;20052;-42
2023/08/03 09:55:58;;;;;;;3.42;1.20;;;22.80;99.90;;;;;;5056830;28;20403;-42
2023/08/03 09:58:29;;;;;;;5.10;1.02;;;23.50;99.90;;;;;;5054406;28;20076;-42
2023/08/03 10:00:58;;;;;;;8.48;1.00;;;22.70;5.40;;;;;;5056420;28;20137;-42
2023/08/03 10:03:25;;;;;;;5.18;0.82;;;22.00;1.00;;;;;;5056433;28;20124;-42
2023/08/03 10:06:06;;;;;;;4.80;1.45;;;21.50;99.90;;;;;;5056373;28;20131;-42
2023/08/03 10:08:48;;;;;;;5.72;1.38;;;20.80;87.70;;;;;;5053424;28;20471;-41
2023/08/03 10:11:14;;;;;;;6.55;1.38;;;20.70;99.90;;;;;;5056703;28;20041;-39
2023/08/03 10:13:47;;;;;;;5.03;1.70;;;20.50;1.00;;;;;;5055197;28;20486;-40
2023/08/03 10:16:15;;;;;;;9.73;1.63;;;20.20;16.30;;;;;;5055580;28;20060;-39
2023/08/03 10:18:42;;;;;;;7.95;1.85;;;19.90;99.90;;;;;;5053005;28;20124;-42
2023/08/03 10:21:09;;;;;;;8.55;1.48;;;19.70;99.90;;;;;;5049435;28;20510;-42
2023/08/03 10:23:38;;;;;;;5.22;1.20;;;19.70;1.00;;;;;;5046789;28;20048;-42
2023/08/03 10:26:05;;;;;;;8.52;1.25;;;20.50;99.90;;;;;;5057053;28;20040;-42
2023/08/03 10:28:40;;;;;;;3.78;0.80;;;21.30;1.00;;;;;;5056003;28;20055;-42
2023/08/03 10:31:14;;;;;;;4.82;1.17;;;21.70;99.90;;;;;;5054943;28;20107;-43
2023/08/03 10:33:51;;;;;;;8.57;1.20;;;21.70;99.90;;;;;;5056494;28;20098;-43
2023/08/03 10:36:29;;;;;;;4.07;0.73;;;21.10;1.00;;;;;;5047806;28;20124;-43
2023/08/03 10:39:06;;;;;;;3.40;1.10;;;21.50;99.90;;;;;;5035714;28;20045;-43
2023/08/03 10:41:37;;;;;;;3.63;0.77;;;22.00;1.00;;;;;;5035793;28;20044;-43
2023/08/03 10:44:06;;;;;;;5.53;0.90;;;21.60;99.90;;;;;;5035810;28;20053;-43
2023/08/03 10:46:34;;;;;;;4.70;0.60;;;21.20;99.90;;;;;;5039022;28;20049;-42
2023/08/03 10:49:20;;;;;;;3.30;0.55;;;20.80;99.90;;;;;;5055589;28;20071;-42
2023/08/03 10:52:12;;;;;;;7.25;1.73;;;20.60;1.00;;;;;;5055449;28;20041;-43
2023/08/03 10:54:38;;;;;;;4.93;0.60;;;20.40;99.90;;;;;;5045947;28;20052;-43
2023/08/03 10:57:12;;;;;;;4.47;0.70;;;20.10;1.00;;;;;;5060440;28;20056;-43
2023/08/03 10:59:45;;;;;;;6.50;0.90;;;20.40;1.00;;;;;;5058494;28;20530;-42
2023/08/03 11:02:31;;;;;;;5.60;0.70;;;20.60;1.00;;;;;;5062364;28;20162;-43
2023/08/03 11:05:06;;;;;;;3.13;0.80;;;20.40;1.00;;;;;;5054060;28;20061;-42
2023/08/03 11:07:43;;;;;;;4.57;0.80;;;20.50;99.90;;;;;;5055094;28;20052;-42
2023/08/03 11:10:11;;;;;;;2.53;0.60;;;21.30;1.00;;;;;;5054899;28;20052;-44
2023/08/03 11:12:38;;;;;;;2.90;0.55;;;21.60;99.90;;;;;;5045547;28;20052;-42
2023/08/03 11:15:05;;;;;;;4.50;0.73;;;21.40;99.90;;;;;;5040634;28;20107;-42
2023/08/03 11:17:35;;;;;;;2.88;0.70;;;22.10;99.90;;;;;;5054109;28;20052;-42
2023/08/03 11:20:03;;;;;;;3.08;0.60;;;22.60;99.90;;;;;;5053735;28;20084;-43
2023/08/03 11:22:30;;;;;;;3.22;0.70;;;22.80;99.90;;;;;;5054892;28;20041;-42
2023/08/03 11:25:00;;;;;;;2.97;0.50;;;22.70;1.00;;;;;;5053641;28;20041;-43
2023/08/03 11:27:26;;;;;;;1.20;0.70;;;22.90;99.90;;;;;;5056439;28;20041;-43
2023/08/03 11:29:53;;;;;;;3.45;0.80;;;22.50;1.00;;;;;;5052213;28;20107;-42
2023/08/03 11:32:31;;;;;;;3.42;0.70;;;22.70;1.00;;;;;;5044291;28;20049;-43
2023/08/03 11:35:04;;;;;;;2.03;0.30;;;23.00;99.90;;;;;;5034810;28;20525;-43
2023/08/03 11:37:31;;;;;;;7.97;0.68;;;23.30;1.00;;;;;;5045593;28;20045;-43
2023/08/03 11:39:58;;;;;;;2.97;0.40;;;23.20;1.00;;;;;;5054914;28;20127;-43
2023/08/03 11:42:25;;;;;;;1.80;0.60;;;23.50;14.10;;;;;;5055002;28;20041;-43
2023/08/03 11:44:50;;;;;;;2.67;0.70;;;23.30;99.90;;;;;;5054549;28;20045;-43
2023/08/03 11:47:16;;;;;;;2.95;0.60;;;22.60;1.00;;;;;;5053377;28;20394;-43
2023/08/03 11:49:42;;;;;;;2.17;0.55;;;22.30;99.90;;;;;;5042408;28;20056;-43
2023/08/03 11:52:19;;;;;;;4.75;0.70;;;22.50;1.00;;;;;;5034978;28;20053;-43
2023/08/03 11:54:45;;;;;;;3.97;0.95;;;22.60;1.00;;;;;;5041566;28;20073;-43
2023/08/03 11:59:55;;;;;;;5.18;1.23;;;22.60;99.90;;;;;;5024769;28;20053;-43
2023/08/03 12:02:43;;;;;;;5.70;0.90;;;22.10;99.90;;;;;;5034481;28;20053;-43
2023/08/03 12:05:10;;;;;;;6.55;1.02;;;22.40;99.90;;;;;;5033619;28;20056;-43
2023/08/03 12:07:36;;;;;;;4.60;0.80;;;22.20;99.90;;;;;;5033717;28;20045;-43
2023/08/03 12:10:12;;;;;;;5.90;1.15;;;20.70;99.90;;;;;;5036169;28;20056;-41
2023/08/03 12:12:39;;;;;;;9.57;1.70;;;18.80;1.00;;;;;;5045592;28;20178;-36
2023/08/03 12:15:06;;;;;;;10.43;1.67;;;18.10;99.90;;;;;;5053904;28;20117;-33
2023/08/03 12:17:32;;;;;;;8.70;1.80;;;17.80;99.90;;;;;;5034790;28;20053;-33
2023/08/03 12:19:57;;;;;;;8.43;1.90;;;17.70;99.90;;;;;;5034046;28;20132;-34
2023/08/03 12:22:23;;;;;;;11.30;2.20;;;17.80;99.90;;;;;;5033883;28;20060;-34
2023/08/03 12:24:49;;;;;;;5.68;1.85;;;18.10;99.90;;;;;;5033243;28;20041;-37
2023/08/03 12:27:14;;;;;;;7.28;1.20;;;18.40;99.90;;;;;;5034213;28;20499;-40
2023/08/03 12:29:40;;;;;;;5.70;1.35;;;18.80;99.90;;;;;;5033799;28;20049;-41
2023/08/03 12:32:07;;;;;;;5.78;1.75;;;19.20;99.90;;;;;;5033817;28;20073;-41
2023/08/03 12:34:32;;;;;;;4.25;1.42;;;19.40;99.90;;;;;;5033871;28;20091;-41
2023/08/03 12:36:58;;;;;;;6.05;1.27;;;19.20;99.90;;;;;;5033358;28;20491;-41
2023/08/03 12:39:24;;;;;;;5.03;1.15;;;19.20;99.90;;;;;;5034427;28;20046;-43
2023/08/03 12:41:49;;;;;;;9.15;1.52;;;19.60;99.90;;;;;;5041783;28;20068;-43
2023/08/03 12:44:16;;;;;;;3.90;1.20;;;19.60;2.20;;;;;;5046051;28;20083;-43
2023/08/03 12:46:41;;;;;;;10.02;2.67;;;19.50;1.00;;;;;;5053844;28;20494;-43
2023/08/03 12:49:07;;;;;;;6.80;1.70;;;19.30;1.00;;;;;;5053392;28;20135;-39
2023/08/03 12:51:35;;;;;;;7.85;1.85;;;19.50;83.10;;;;;;5049156;28;20076;-42